sensor_id;sensor_type;location;lat;lon;timestamp;pressure;altitude;pressure_sealevel;temperature
74485;BMP280;62942;52.462;10.846;2023-06-19T00:00:42;100460;;;
74485;BMP280;62942;52.462;10.846;2023-06-19T00:01:52;100460;;;
74485;BMP280;62942;52.462;10.846;2023-06-19T00:02:52;100460;;;
74485;BMP280;62942;52.462;10.846;2023-06-19T00:04:02;100460;;;
74485;BMP280;62942;52.462;10.846;2023-06-19T00:05:02;100460;;;
74485;BMP280;62942;52.462;10.846;2023-06-19T00:06:12;100460;;;
74485;BMP280;62942;52.462;10.846;2023-06-19T00:07:22;100460;;;
74485;BMP280;62942;52.462;10.846;2023-06-19T00:08:22;100460;;;
74485;BMP280;62942;52.462;10.846;2023-06-19T00:09:32;100460;;;
74485;BMP280;62942;52.462;10.846;2023-06-19T00:10:42;100450;;;
74485;BMP280;62942;52.462;10.846;2023-06-19T00:11:52;100450;;;
74485;BMP280;62942;52.462;10.846;2023-06-19T00:13:02;100450;;;
74485;BMP280;62942;52.462;10.846;2023-06-19T00:14:02;100450;;;
74485;BMP280;62942;52.462;10.846;2023-06-19T00:15:12;100440;;;
74485;BMP280;62942;52.462;10.846;2023-06-19T00:16:12;100450;;;
74485;BMP280;62942;52.462;10.846;2023-06-19T00:17:12;100450;;;
74485;BMP280;62942;52.462;10.846;2023-06-19T00:18:22;100440;;;
74485;BMP280;62942;52.462;10.846;2023-06-19T00:19:32;100440;;;
74485;BMP280;62942;52.462;10.846;2023-06-19T00:20:32;100440;;;
74485;BMP280;62942;52.462;10.846;2023-06-19T00:21:42;100440;;;
74485;BMP280;62942;52.462;10.846;2023-06-19T00:22:52;100440;;;
74485;BMP280;62942;52.462;10.846;2023-06-19T00:23:52;100440;;;
74485;BMP280;62942;52.462;10.846;2023-06-19T00:25:02;100440;;;
74485;BMP280;62942;52.462;10.846;2023-06-19T00:26:02;100440;;;
74485;BMP280;62942;52.462;10.846;2023-06-19T00:27:12;100440;;;
74485;BMP280;62942;52.462;10.846;2023-06-19T00:28:22;100440;;;
74485;BMP280;62942;52.462;10.846;2023-06-19T00:29:32;100440;;;
74485;BMP280;62942;52.462;10.846;2023-06-19T00:30:42;100440;;;
74485;BMP280;62942;52.462;10.846;2023-06-19T00:31:52;100440;;;
74485;BMP280;62942;52.462;10.846;2023-06-19T00:33:02;100440;;;
74485;BMP280;62942;52.462;10.846;2023-06-19T00:34:02;100440;;;
74485;BMP280;62942;52.462;10.846;2023-06-19T00:35:12;100450;;;
74485;BMP280;62942;52.462;10.846;2023-06-19T00:36:22;100440;;;
74485;BMP280;62942;52.462;10.846;2023-06-19T00:37:32;100440;;;
74485;BMP280;62942;52.462;10.846;2023-06-19T00:38:32;100440;;;
74485;BMP280;62942;52.462;10.846;2023-06-19T00:39:42;100440;;;
74485;BMP280;62942;52.462;10.846;2023-06-19T00:40:52;100440;;;
74485;BMP280;62942;52.462;10.846;2023-06-19T00:42:02;100440;;;
74485;BMP280;62942;52.462;10.846;2023-06-19T00:43:12;100440;;;
74485;BMP280;62942;52.462;10.846;2023-06-19T00:44:12;100440;;;
74485;BMP280;62942;52.462;10.846;2023-06-19T00:45:22;100440;;;
74485;BMP280;62942;52.462;10.846;2023-06-19T00:46:32;100440;;;
74485;BMP280;62942;52.462;10.846;2023-06-19T00:47:42;100440;;;
74485;BMP280;62942;52.462;10.846;2023-06-19T00:48:52;100440;;;
74485;BMP280;62942;52.462;10.846;2023-06-19T00:49:52;100440;;;
74485;BMP280;62942;52.462;10.846;2023-06-19T00:50:52;100430;;;
74485;BMP280;62942;52.462;10.846;2023-06-19T00:52:02;100430;;;
74485;BMP280;62942;52.462;10.846;2023-06-19T00:53:12;100440;;;
74485;BMP280;62942;52.462;10.846;2023-06-19T00:54:12;100440;;;
74485;BMP280;62942;52.462;10.846;2023-06-19T00:55:22;100430;;;
74485;BMP280;62942;52.462;10.846;2023-06-19T00:56:32;100430;;;
74485;BMP280;62942;52.462;10.846;2023-06-19T00:57:32;100430;;;
74485;BMP280;62942;52.462;10.846;2023-06-19T00:58:42;100430;;;
74485;BMP280;62942;52.462;10.846;2023-06-19T00:59:52;100430;;;
74485;BMP280;62942;52.462;10.846;2023-06-19T01:01:02;100430;;;
74485;BMP280;62942;52.462;10.846;2023-06-19T01:02:12;100430;;;
74485;BMP280;62942;52.462;10.846;2023-06-19T01:03:22;100420;;;
74485;BMP280;62942;52.462;10.846;2023-06-19T01:04:32;100420;;;
74485;BMP280;62942;52.462;10.846;2023-06-19T01:05:42;100420;;;
74485;BMP280;62942;52.462;10.846;2023-06-19T01:06:44;100410;;;
74485;BMP280;62942;52.462;10.846;2023-06-19T01:07:52;100410;;;
74485;BMP280;62942;52.462;10.846;2023-06-19T01:08:55;100410;;;
74485;BMP280;62942;52.462;10.846;2023-06-19T01:09:53;100410;;;
74485;BMP280;62942;52.462;10.846;2023-06-19T01:11:02;100410;;;
74485;BMP280;62942;52.462;10.846;2023-06-19T01:12:04;100410;;;
74485;BMP280;62942;52.462;10.846;2023-06-19T01:13:13;100410;;;
74485;BMP280;62942;52.462;10.846;2023-06-19T01:14:33;100410;;;
74485;BMP280;62942;52.462;10.846;2023-06-19T01:15:32;100410;;;
74485;BMP280;62942;52.462;10.846;2023-06-19T01:16:32;100410;;;
74485;BMP280;62942;52.462;10.846;2023-06-19T01:17:42;100400;;;
74485;BMP280;62942;52.462;10.846;2023-06-19T01:18:52;100400;;;
74485;BMP280;62942;52.462;10.846;2023-06-19T01:20:02;100400;;;
74485;BMP280;62942;52.462;10.846;2023-06-19T01:21:12;100400;;;
74485;BMP280;62942;52.462;10.846;2023-06-19T01:22:23;100390;;;
74485;BMP280;62942;52.462;10.846;2023-06-19T01:23:22;100390;;;
74485;BMP280;62942;52.462;10.846;2023-06-19T01:24:32;100400;;;
74485;BMP280;62942;52.462;10.846;2023-06-19T01:25:42;100390;;;
74485;BMP280;62942;52.462;10.846;2023-06-19T01:26:52;100390;;;
74485;BMP280;62942;52.462;10.846;2023-06-19T01:28:02;100380;;;
74485;BMP280;62942;52.462;10.846;2023-06-19T01:29:12;100380;;;
74485;BMP280;62942;52.462;10.846;2023-06-19T01:30:22;100380;;;
74485;BMP280;62942;52.462;10.846;2023-06-19T01:31:33;100390;;;
74485;BMP280;62942;52.462;10.846;2023-06-19T01:32:34;100390;;;
74485;BMP280;62942;52.462;10.846;2023-06-19T01:33:42;100380;;;
74485;BMP280;62942;52.462;10.846;2023-06-19T01:34:52;100380;;;
74485;BMP280;62942;52.462;10.846;2023-06-19T01:36:02;100380;;;
74485;BMP280;62942;52.462;10.846;2023-06-19T01:37:02;100370;;;
74485;BMP280;62942;52.462;10.846;2023-06-19T01:38:02;100370;;;
74485;BMP280;62942;52.462;10.846;2023-06-19T01:39:12;100370;;;
74485;BMP280;62942;52.462;10.846;2023-06-19T01:40:22;100360;;;
74485;BMP280;62942;52.462;10.846;2023-06-19T01:41:32;100370;;;
74485;BMP280;62942;52.462;10.846;2023-06-19T01:42:32;100370;;;
74485;BMP280;62942;52.462;10.846;2023-06-19T01:43:42;100370;;;
74485;BMP280;62942;52.462;10.846;2023-06-19T01:44:42;100370;;;
74485;BMP280;62942;52.462;10.846;2023-06-19T01:45:52;100370;;;
74485;BMP280;62942;52.462;10.846;2023-06-19T01:46:52;100370;;;
74485;BMP280;62942;52.462;10.846;2023-06-19T01:48:02;100370;;;
74485;BMP280;62942;52.462;10.846;2023-06-19T01:49:12;100370;;;
74485;BMP280;62942;52.462;10.846;2023-06-19T01:50:12;100360;;;
74485;BMP280;62942;52.462;10.846;2023-06-19T01:51:22;100360;;;
74485;BMP280;62942;52.462;10.846;2023-06-19T01:52:22;100370;;;
74485;BMP280;62942;52.462;10.846;2023-06-19T01:53:32;100370;;;
74485;BMP280;62942;52.462;10.846;2023-06-19T01:54:32;100370;;;
74485;BMP280;62942;52.462;10.846;2023-06-19T01:55:42;100370;;;
74485;BMP280;62942;52.462;10.846;2023-06-19T01:56:52;100370;;;
74485;BMP280;62942;52.462;10.846;2023-06-19T01:57:52;100370;;;
74485;BMP280;62942;52.462;10.846;2023-06-19T01:59:02;100370;;;
74485;BMP280;62942;52.462;10.846;2023-06-19T02:00:12;100370;;;
74485;BMP280;62942;52.462;10.846;2023-06-19T02:01:22;100370;;;
74485;BMP280;62942;52.462;10.846;2023-06-19T02:02:32;100370;;;
74485;BMP280;62942;52.462;10.846;2023-06-19T02:03:32;100370;;;
74485;BMP280;62942;52.462;10.846;2023-06-19T02:04:42;100370;;;
74485;BMP280;62942;52.462;10.846;2023-06-19T02:05:42;100370;;;
74485;BMP280;62942;52.462;10.846;2023-06-19T02:06:52;100370;;;
74485;BMP280;62942;52.462;10.846;2023-06-19T02:07:52;100370;;;
74485;BMP280;62942;52.462;10.846;2023-06-19T02:09:02;100370;;;
74485;BMP280;62942;52.462;10.846;2023-06-19T02:10:02;100370;;;
74485;BMP280;62942;52.462;10.846;2023-06-19T02:11:12;100360;;;
74485;BMP280;62942;52.462;10.846;2023-06-19T02:12:12;100360;;;
74485;BMP280;62942;52.462;10.846;2023-06-19T02:13:22;100350;;;
74485;BMP280;62942;52.462;10.846;2023-06-19T02:14:32;100350;;;
74485;BMP280;62942;52.462;10.846;2023-06-19T02:15:32;100350;;;
74485;BMP280;62942;52.462;10.846;2023-06-19T02:16:42;100360;;;
74485;BMP280;62942;52.462;10.846;2023-06-19T02:17:42;100360;;;
74485;BMP280;62942;52.462;10.846;2023-06-19T02:18:52;100360;;;
74485;BMP280;62942;52.462;10.846;2023-06-19T02:20:02;100360;;;
74485;BMP280;62942;52.462;10.846;2023-06-19T02:21:02;100360;;;
74485;BMP280;62942;52.462;10.846;2023-06-19T02:22:12;100360;;;
74485;BMP280;62942;52.462;10.846;2023-06-19T02:23:12;100360;;;
74485;BMP280;62942;52.462;10.846;2023-06-19T02:24:22;100360;;;
74485;BMP280;62942;52.462;10.846;2023-06-19T02:25:32;100360;;;
74485;BMP280;62942;52.462;10.846;2023-06-19T02:26:32;100360;;;
74485;BMP280;62942;52.462;10.846;2023-06-19T02:27:42;100360;;;
74485;BMP280;62942;52.462;10.846;2023-06-19T02:28:42;100360;;;
74485;BMP280;62942;52.462;10.846;2023-06-19T02:29:52;100350;;;
74485;BMP280;62942;52.462;10.846;2023-06-19T02:30:52;100350;;;
74485;BMP280;62942;52.462;10.846;2023-06-19T02:32:02;100350;;;
74485;BMP280;62942;52.462;10.846;2023-06-19T02:33:12;100340;;;
74485;BMP280;62942;52.462;10.846;2023-06-19T02:34:12;100350;;;
74485;BMP280;62942;52.462;10.846;2023-06-19T02:35:12;100350;;;
74485;BMP280;62942;52.462;10.846;2023-06-19T02:36:22;100350;;;
74485;BMP280;62942;52.462;10.846;2023-06-19T02:37:22;100350;;;
74485;BMP280;62942;52.462;10.846;2023-06-19T02:38:32;100350;;;
74485;BMP280;62942;52.462;10.846;2023-06-19T02:39:32;100350;;;
74485;BMP280;62942;52.462;10.846;2023-06-19T02:40:42;100350;;;
74485;BMP280;62942;52.462;10.846;2023-06-19T02:41:42;100350;;;
74485;BMP280;62942;52.462;10.846;2023-06-19T02:42:52;100350;;;
74485;BMP280;62942;52.462;10.846;2023-06-19T02:44:02;100350;;;
74485;BMP280;62942;52.462;10.846;2023-06-19T02:45:12;100350;;;
74485;BMP280;62942;52.462;10.846;2023-06-19T02:46:22;100340;;;
74485;BMP280;62942;52.462;10.846;2023-06-19T02:47:32;100350;;;
74485;BMP280;62942;52.462;10.846;2023-06-19T02:48:32;100340;;;
74485;BMP280;62942;52.462;10.846;2023-06-19T02:49:42;100340;;;
74485;BMP280;62942;52.462;10.846;2023-06-19T02:50:52;100350;;;
74485;BMP280;62942;52.462;10.846;2023-06-19T02:51:52;100350;;;
74485;BMP280;62942;52.462;10.846;2023-06-19T02:53:02;100350;;;
74485;BMP280;62942;52.462;10.846;2023-06-19T02:54:12;100350;;;
74485;BMP280;62942;52.462;10.846;2023-06-19T02:55:12;100350;;;
74485;BMP280;62942;52.462;10.846;2023-06-19T02:56:22;100350;;;
74485;BMP280;62942;52.462;10.846;2023-06-19T02:57:22;100350;;;
74485;BMP280;62942;52.462;10.846;2023-06-19T02:58:32;100350;;;
74485;BMP280;62942;52.462;10.846;2023-06-19T02:59:42;100350;;;
74485;BMP280;62942;52.462;10.846;2023-06-19T03:00:52;100340;;;
74485;BMP280;62942;52.462;10.846;2023-06-19T03:01:52;100350;;;
74485;BMP280;62942;52.462;10.846;2023-06-19T03:03:02;100340;;;
74485;BMP280;62942;52.462;10.846;2023-06-19T03:04:12;100340;;;
74485;BMP280;62942;52.462;10.846;2023-06-19T03:05:22;100340;;;
74485;BMP280;62942;52.462;10.846;2023-06-19T03:06:22;100340;;;
74485;BMP280;62942;52.462;10.846;2023-06-19T03:07:22;100340;;;
74485;BMP280;62942;52.462;10.846;2023-06-19T03:08:32;100340;;;
74485;BMP280;62942;52.462;10.846;2023-06-19T03:09:32;100350;;;
74485;BMP280;62942;52.462;10.846;2023-06-19T03:10:42;100350;;;
74485;BMP280;62942;52.462;10.846;2023-06-19T03:11:42;100340;;;
74485;BMP280;62942;52.462;10.846;2023-06-19T03:12:51;100340;;;
74485;BMP280;62942;52.462;10.846;2023-06-19T03:13:52;100340;;;
74485;BMP280;62942;52.462;10.846;2023-06-19T03:15:02;100330;;;
74485;BMP280;62942;52.462;10.846;2023-06-19T03:16:12;100340;;;
74485;BMP280;62942;52.462;10.846;2023-06-19T03:17:22;100330;;;
74485;BMP280;62942;52.462;10.846;2023-06-19T03:18:32;100340;;;
74485;BMP280;62942;52.462;10.846;2023-06-19T03:19:42;100330;;;
74485;BMP280;62942;52.462;10.846;2023-06-19T03:20:52;100320;;;
74485;BMP280;62942;52.462;10.846;2023-06-19T03:21:52;100330;;;
74485;BMP280;62942;52.462;10.846;2023-06-19T03:23:02;100330;;;
74485;BMP280;62942;52.462;10.846;2023-06-19T03:24:02;100330;;;
74485;BMP280;62942;52.462;10.846;2023-06-19T03:25:12;100330;;;
74485;BMP280;62942;52.462;10.846;2023-06-19T03:26:12;100330;;;
74485;BMP280;62942;52.462;10.846;2023-06-19T03:27:22;100310;;;
74485;BMP280;62942;52.462;10.846;2023-06-19T03:28:22;100310;;;
74485;BMP280;62942;52.462;10.846;2023-06-19T03:29:32;100310;;;
74485;BMP280;62942;52.462;10.846;2023-06-19T03:30:32;100310;;;
74485;BMP280;62942;52.462;10.846;2023-06-19T03:31:41;100320;;;
74485;BMP280;62942;52.462;10.846;2023-06-19T03:32:42;100320;;;
74485;BMP280;62942;52.462;10.846;2023-06-19T03:33:51;100320;;;
74485;BMP280;62942;52.462;10.846;2023-06-19T03:34:52;100320;;;
74485;BMP280;62942;52.462;10.846;2023-06-19T03:36:02;100330;;;
74485;BMP280;62942;52.462;10.846;2023-06-19T03:37:02;100320;;;
74485;BMP280;62942;52.462;10.846;2023-06-19T03:38:02;100330;;;
74485;BMP280;62942;52.462;10.846;2023-06-19T03:39:11;100330;;;
74485;BMP280;62942;52.462;10.846;2023-06-19T03:40:11;100330;;;
74485;BMP280;62942;52.462;10.846;2023-06-19T03:41:22;100340;;;
74485;BMP280;62942;52.462;10.846;2023-06-19T03:42:21;100350;;;
74485;BMP280;62942;52.462;10.846;2023-06-19T03:43:31;100340;;;
74485;BMP280;62942;52.462;10.846;2023-06-19T03:44:32;100340;;;
74485;BMP280;62942;52.462;10.846;2023-06-19T03:45:42;100340;;;
74485;BMP280;62942;52.462;10.846;2023-06-19T03:46:51;100340;;;
74485;BMP280;62942;52.462;10.846;2023-06-19T03:47:52;100340;;;
74485;BMP280;62942;52.462;10.846;2023-06-19T03:49:01;100340;;;
74485;BMP280;62942;52.462;10.846;2023-06-19T03:50:12;100330;;;
74485;BMP280;62942;52.462;10.846;2023-06-19T03:51:21;100330;;;
74485;BMP280;62942;52.462;10.846;2023-06-19T03:52:21;100330;;;
74485;BMP280;62942;52.462;10.846;2023-06-19T03:53:31;100330;;;
74485;BMP280;62942;52.462;10.846;2023-06-19T03:54:32;100340;;;
74485;BMP280;62942;52.462;10.846;2023-06-19T03:55:42;100330;;;
74485;BMP280;62942;52.462;10.846;2023-06-19T03:56:42;100330;;;
74485;BMP280;62942;52.462;10.846;2023-06-19T03:57:51;100330;;;
74485;BMP280;62942;52.462;10.846;2023-06-19T03:58:52;100340;;;
74485;BMP280;62942;52.462;10.846;2023-06-19T04:00:02;100340;;;
74485;BMP280;62942;52.462;10.846;2023-06-19T04:01:01;100330;;;
74485;BMP280;62942;52.462;10.846;2023-06-19T04:02:02;100330;;;
74485;BMP280;62942;52.462;10.846;2023-06-19T04:03:02;100330;;;
74485;BMP280;62942;52.462;10.846;2023-06-19T04:04:11;100340;;;
74485;BMP280;62942;52.462;10.846;2023-06-19T04:05:21;100340;;;
74485;BMP280;62942;52.462;10.846;2023-06-19T04:06:22;100340;;;
74485;BMP280;62942;52.462;10.846;2023-06-19T04:07:32;100330;;;
74485;BMP280;62942;52.462;10.846;2023-06-19T04:08:41;100330;;;
74485;BMP280;62942;52.462;10.846;2023-06-19T04:09:51;100340;;;
74485;BMP280;62942;52.462;10.846;2023-06-19T04:10:51;100330;;;
74485;BMP280;62942;52.462;10.846;2023-06-19T04:12:02;100330;;;
74485;BMP280;62942;52.462;10.846;2023-06-19T04:13:12;100330;;;
74485;BMP280;62942;52.462;10.846;2023-06-19T04:14:21;100340;;;
74485;BMP280;62942;52.462;10.846;2023-06-19T04:15:31;100340;;;
74485;BMP280;62942;52.462;10.846;2023-06-19T04:16:41;100340;;;
74485;BMP280;62942;52.462;10.846;2023-06-19T04:17:51;100350;;;
74485;BMP280;62942;52.462;10.846;2023-06-19T04:18:51;100340;;;
74485;BMP280;62942;52.462;10.846;2023-06-19T04:20:01;100350;;;
74485;BMP280;62942;52.462;10.846;2023-06-19T04:21:02;100350;;;
74485;BMP280;62942;52.462;10.846;2023-06-19T04:22:12;100350;;;
74485;BMP280;62942;52.462;10.846;2023-06-19T04:23:21;100350;;;
74485;BMP280;62942;52.462;10.846;2023-06-19T04:24:31;100350;;;
74485;BMP280;62942;52.462;10.846;2023-06-19T04:25:41;100360;;;
74485;BMP280;62942;52.462;10.846;2023-06-19T04:26:51;100360;;;
74485;BMP280;62942;52.462;10.846;2023-06-19T04:27:51;100360;;;
74485;BMP280;62942;52.462;10.846;2023-06-19T04:28:51;100340;;;
74485;BMP280;62942;52.462;10.846;2023-06-19T04:30:02;100360;;;
74485;BMP280;62942;52.462;10.846;2023-06-19T04:31:01;100360;;;
74485;BMP280;62942;52.462;10.846;2023-06-19T04:32:01;100340;;;
74485;BMP280;62942;52.462;10.846;2023-06-19T04:33:11;100340;;;
74485;BMP280;62942;52.462;10.846;2023-06-19T04:34:21;100350;;;
74485;BMP280;62942;52.462;10.846;2023-06-19T04:35:31;100350;;;
74485;BMP280;62942;52.462;10.846;2023-06-19T04:36:41;100350;;;
74485;BMP280;62942;52.462;10.846;2023-06-19T04:37:52;100360;;;
74485;BMP280;62942;52.462;10.846;2023-06-19T04:38:51;100360;;;
74485;BMP280;62942;52.462;10.846;2023-06-19T04:40:02;100360;;;
74485;BMP280;62942;52.462;10.846;2023-06-19T04:41:11;100360;;;
74485;BMP280;62942;52.462;10.846;2023-06-19T04:42:21;100370;;;
74485;BMP280;62942;52.462;10.846;2023-06-19T04:43:31;100370;;;
74485;BMP280;62942;52.462;10.846;2023-06-19T04:44:41;100370;;;
74485;BMP280;62942;52.462;10.846;2023-06-19T04:45:42;100370;;;
74485;BMP280;62942;52.462;10.846;2023-06-19T04:46:51;100370;;;
74485;BMP280;62942;52.462;10.846;2023-06-19T04:48:01;100380;;;
74485;BMP280;62942;52.462;10.846;2023-06-19T04:49:01;100380;;;
74485;BMP280;62942;52.462;10.846;2023-06-19T04:50:11;100380;;;
74485;BMP280;62942;52.462;10.846;2023-06-19T04:51:11;100380;;;
74485;BMP280;62942;52.462;10.846;2023-06-19T04:52:11;100380;;;
74485;BMP280;62942;52.462;10.846;2023-06-19T04:53:21;100380;;;
74485;BMP280;62942;52.462;10.846;2023-06-19T04:54:21;100370;;;
74485;BMP280;62942;52.462;10.846;2023-06-19T04:55:31;100360;;;
74485;BMP280;62942;52.462;10.846;2023-06-19T04:56:31;100370;;;
74485;BMP280;62942;52.462;10.846;2023-06-19T04:57:41;100370;;;
74485;BMP280;62942;52.462;10.846;2023-06-19T04:58:51;100370;;;
74485;BMP280;62942;52.462;10.846;2023-06-19T05:00:02;100370;;;
74485;BMP280;62942;52.462;10.846;2023-06-19T05:01:01;100370;;;
74485;BMP280;62942;52.462;10.846;2023-06-19T05:02:11;100380;;;
74485;BMP280;62942;52.462;10.846;2023-06-19T05:03:21;100380;;;
74485;BMP280;62942;52.462;10.846;2023-06-19T05:04:31;100380;;;
74485;BMP280;62942;52.462;10.846;2023-06-19T05:05:31;100380;;;
74485;BMP280;62942;52.462;10.846;2023-06-19T05:06:41;100380;;;
74485;BMP280;62942;52.462;10.846;2023-06-19T05:07:51;100380;;;
74485;BMP280;62942;52.462;10.846;2023-06-19T05:09:01;100380;;;
74485;BMP280;62942;52.462;10.846;2023-06-19T05:10:02;100380;;;
74485;BMP280;62942;52.462;10.846;2023-06-19T05:11:11;100380;;;
74485;BMP280;62942;52.462;10.846;2023-06-19T05:12:21;100380;;;
74485;BMP280;62942;52.462;10.846;2023-06-19T05:13:31;100390;;;
74485;BMP280;62942;52.462;10.846;2023-06-19T05:14:41;100400;;;
74485;BMP280;62942;52.462;10.846;2023-06-19T05:15:51;100390;;;
74485;BMP280;62942;52.462;10.846;2023-06-19T05:16:52;100380;;;
74485;BMP280;62942;52.462;10.846;2023-06-19T05:18:01;100390;;;
74485;BMP280;62942;52.462;10.846;2023-06-19T05:19:01;100400;;;
74485;BMP280;62942;52.462;10.846;2023-06-19T05:20:12;100390;;;
74485;BMP280;62942;52.462;10.846;2023-06-19T05:21:11;100390;;;
74485;BMP280;62942;52.462;10.846;2023-06-19T05:22:21;100390;;;
74485;BMP280;62942;52.462;10.846;2023-06-19T05:23:21;100390;;;
74485;BMP280;62942;52.462;10.846;2023-06-19T05:24:32;100390;;;
74485;BMP280;62942;52.462;10.846;2023-06-19T05:25:41;100390;;;
74485;BMP280;62942;52.462;10.846;2023-06-19T05:26:51;100390;;;
74485;BMP280;62942;52.462;10.846;2023-06-19T05:28:01;100390;;;
74485;BMP280;62942;52.462;10.846;2023-06-19T05:29:11;100390;;;
74485;BMP280;62942;52.462;10.846;2023-06-19T05:30:21;100400;;;
74485;BMP280;62942;52.462;10.846;2023-06-19T05:31:31;100390;;;
74485;BMP280;62942;52.462;10.846;2023-06-19T05:32:41;100380;;;
74485;BMP280;62942;52.462;10.846;2023-06-19T05:33:41;100390;;;
74485;BMP280;62942;52.462;10.846;2023-06-19T05:34:51;100390;;;
74485;BMP280;62942;52.462;10.846;2023-06-19T05:35:51;100380;;;
74485;BMP280;62942;52.462;10.846;2023-06-19T05:37:01;100370;;;
74485;BMP280;62942;52.462;10.846;2023-06-19T05:38:11;100380;;;
74485;BMP280;62942;52.462;10.846;2023-06-19T05:39:11;100380;;;
74485;BMP280;62942;52.462;10.846;2023-06-19T05:40:21;100380;;;
74485;BMP280;62942;52.462;10.846;2023-06-19T05:41:21;100370;;;
74485;BMP280;62942;52.462;10.846;2023-06-19T05:42:31;100370;;;
74485;BMP280;62942;52.462;10.846;2023-06-19T05:43:31;100370;;;
74485;BMP280;62942;52.462;10.846;2023-06-19T05:44:41;100370;;;
74485;BMP280;62942;52.462;10.846;2023-06-19T05:45:52;100380;;;
74485;BMP280;62942;52.462;10.846;2023-06-19T05:46:51;100390;;;
74485;BMP280;62942;52.462;10.846;2023-06-19T05:48:01;100390;;;
74485;BMP280;62942;52.462;10.846;2023-06-19T05:49:01;100400;;;
74485;BMP280;62942;52.462;10.846;2023-06-19T05:50:11;100380;;;
74485;BMP280;62942;52.462;10.846;2023-06-19T05:51:11;100380;;;
74485;BMP280;62942;52.462;10.846;2023-06-19T05:52:21;100390;;;
74485;BMP280;62942;52.462;10.846;2023-06-19T05:53:31;100390;;;
74485;BMP280;62942;52.462;10.846;2023-06-19T05:54:41;100390;;;
74485;BMP280;62942;52.462;10.846;2023-06-19T05:55:41;100390;;;
74485;BMP280;62942;52.462;10.846;2023-06-19T05:56:51;100390;;;
74485;BMP280;62942;52.462;10.846;2023-06-19T05:57:51;100390;;;
74485;BMP280;62942;52.462;10.846;2023-06-19T05:59:01;100380;;;
74485;BMP280;62942;52.462;10.846;2023-06-19T06:00:12;100390;;;
74485;BMP280;62942;52.462;10.846;2023-06-19T06:01:21;100390;;;
74485;BMP280;62942;52.462;10.846;2023-06-19T06:02:21;100400;;;
74485;BMP280;62942;52.462;10.846;2023-06-19T06:03:31;100390;;;
74485;BMP280;62942;52.462;10.846;2023-06-19T06:04:31;100390;;;
74485;BMP280;62942;52.462;10.846;2023-06-19T06:05:41;100390;;;
74485;BMP280;62942;52.462;10.846;2023-06-19T06:06:51;100390;;;
74485;BMP280;62942;52.462;10.846;2023-06-19T06:07:51;100400;;;
74485;BMP280;62942;52.462;10.846;2023-06-19T06:09:01;100400;;;
74485;BMP280;62942;52.462;10.846;2023-06-19T06:10:01;100400;;;
74485;BMP280;62942;52.462;10.846;2023-06-19T06:11:11;100400;;;
74485;BMP280;62942;52.462;10.846;2023-06-19T06:12:11;100410;;;
74485;BMP280;62942;52.462;10.846;2023-06-19T06:13:21;100400;;;
74485;BMP280;62942;52.462;10.846;2023-06-19T06:14:31;100400;;;
74485;BMP280;62942;52.462;10.846;2023-06-19T06:15:41;100410;;;
74485;BMP280;62942;52.462;10.846;2023-06-19T06:16:51;100400;;;
74485;BMP280;62942;52.462;10.846;2023-06-19T06:17:51;100400;;;
74485;BMP280;62942;52.462;10.846;2023-06-19T06:19:01;100410;;;
74485;BMP280;62942;52.462;10.846;2023-06-19T06:20:11;100400;;;
74485;BMP280;62942;52.462;10.846;2023-06-19T06:21:11;100410;;;
74485;BMP280;62942;52.462;10.846;2023-06-19T06:22:21;100410;;;
74485;BMP280;62942;52.462;10.846;2023-06-19T06:23:31;100410;;;
74485;BMP280;62942;52.462;10.846;2023-06-19T06:24:41;100410;;;
74485;BMP280;62942;52.462;10.846;2023-06-19T06:25:51;100400;;;
74485;BMP280;62942;52.462;10.846;2023-06-19T06:27:01;100410;;;
74485;BMP280;62942;52.462;10.846;2023-06-19T06:28:01;100420;;;
74485;BMP280;62942;52.462;10.846;2023-06-19T06:29:11;100420;;;
74485;BMP280;62942;52.462;10.846;2023-06-19T06:30:11;100410;;;
74485;BMP280;62942;52.462;10.846;2023-06-19T06:31:21;100420;;;
74485;BMP280;62942;52.462;10.846;2023-06-19T06:32:21;100420;;;
74485;BMP280;62942;52.462;10.846;2023-06-19T06:33:21;100430;;;
74485;BMP280;62942;52.462;10.846;2023-06-19T06:34:31;100430;;;
74485;BMP280;62942;52.462;10.846;2023-06-19T06:35:41;100430;;;
74485;BMP280;62942;52.462;10.846;2023-06-19T06:36:51;100430;;;
74485;BMP280;62942;52.462;10.846;2023-06-19T06:38:01;100420;;;
74485;BMP280;62942;52.462;10.846;2023-06-19T06:39:01;100420;;;
74485;BMP280;62942;52.462;10.846;2023-06-19T06:40:11;100420;;;
74485;BMP280;62942;52.462;10.846;2023-06-19T06:41:21;100420;;;
74485;BMP280;62942;52.462;10.846;2023-06-19T06:42:21;100420;;;
74485;BMP280;62942;52.462;10.846;2023-06-19T06:43:31;100430;;;
74485;BMP280;62942;52.462;10.846;2023-06-19T06:44:41;100420;;;
74485;BMP280;62942;52.462;10.846;2023-06-19T06:45:51;100420;;;
74485;BMP280;62942;52.462;10.846;2023-06-19T06:47:01;100420;;;
74485;BMP280;62942;52.462;10.846;2023-06-19T06:48:01;100420;;;
74485;BMP280;62942;52.462;10.846;2023-06-19T06:49:01;100420;;;
74485;BMP280;62942;52.462;10.846;2023-06-19T06:50:11;100420;;;
74485;BMP280;62942;52.462;10.846;2023-06-19T06:51:21;100420;;;
74485;BMP280;62942;52.462;10.846;2023-06-19T06:52:31;100420;;;
74485;BMP280;62942;52.462;10.846;2023-06-19T06:53:31;100420;;;
74485;BMP280;62942;52.462;10.846;2023-06-19T06:54:41;100430;;;
74485;BMP280;62942;52.462;10.846;2023-06-19T06:55:41;100420;;;
74485;BMP280;62942;52.462;10.846;2023-06-19T06:56:51;100420;;;
74485;BMP280;62942;52.462;10.846;2023-06-19T06:58:01;100420;;;
74485;BMP280;62942;52.462;10.846;2023-06-19T06:59:01;100410;;;
74485;BMP280;62942;52.462;10.846;2023-06-19T07:00:12;100410;;;